createdAt,value
2017-05-25T00:00:25.584Z,1017.29
2017-05-25T00:01:06.469Z,1017.27
2017-05-25T00:01:47.408Z,1017.27
2017-05-25T00:02:28.283Z,1017.28
2017-05-25T00:03:09.203Z,1017.25
2017-05-25T00:03:50.674Z,1017.27
2017-05-25T00:04:31.560Z,1017.26
2017-05-25T00:05:12.454Z,1017.25
2017-05-25T00:05:53.348Z,1017.21
2017-05-25T00:06:34.264Z,1017.23
2017-05-25T00:07:15.157Z,1017.25
2017-05-25T00:07:56.044Z,1017.25
2017-05-25T00:08:36.960Z,1017.18
2017-05-25T00:09:17.848Z,1017.21
2017-05-25T00:09:58.728Z,1017.18
2017-05-25T00:11:31.971Z,1017.22
2017-05-25T00:12:12.859Z,1017.2
2017-05-25T00:12:53.732Z,1017.19
2017-05-25T00:13:34.632Z,1017.21
2017-05-25T00:14:15.527Z,1017.17
2017-05-25T00:14:56.437Z,1017.16
2017-05-25T00:15:37.341Z,1017.15
2017-05-25T00:16:18.235Z,1017.12
2017-05-25T00:16:59.116Z,1017.14
2017-05-25T00:17:40.011Z,1017.08
2017-05-25T00:18:20.900Z,1017.16
2017-05-25T00:19:54.152Z,1017.08
2017-05-25T00:20:35.047Z,1017.07
2017-05-25T00:21:15.944Z,1017.09
2017-05-25T00:21:56.836Z,1017.12
2017-05-25T00:22:37.701Z,1017.15
2017-05-25T00:23:18.583Z,1017.14
2017-05-25T00:23:59.458Z,1017.11
2017-05-25T00:24:40.349Z,1017.1
2017-05-25T00:25:21.260Z,1017.11
2017-05-25T00:26:02.139Z,1017.1
2017-05-25T00:26:43.058Z,1017.13
2017-05-25T00:27:23.943Z,1017.13
2017-05-25T00:28:04.856Z,1017.14
2017-05-25T00:28:45.740Z,1017.16
2017-05-25T00:29:26.624Z,1017.14
2017-05-25T00:31:20.317Z,1017.13
2017-05-25T00:32:01.200Z,1017.14
2017-05-25T00:32:42.079Z,1017.12
2017-05-25T00:33:22.963Z,1017.09
2017-05-25T00:34:03.867Z,1017.09
2017-05-25T00:34:44.752Z,1017.14
2017-05-25T00:35:25.615Z,1017.1
2017-05-25T00:36:06.574Z,1017.11
2017-05-25T00:36:47.494Z,1017.09
2017-05-25T00:37:28.383Z,1017.08
2017-05-25T00:38:09.265Z,1017.08
2017-05-25T00:38:50.157Z,1017.07
2017-05-25T00:39:31.049Z,1017.08
2017-05-25T00:40:11.927Z,1017.13
2017-05-25T00:40:52.832Z,1017.1
2017-05-25T00:41:33.730Z,1017.11
2017-05-25T00:42:14.615Z,1017.14
2017-05-25T00:42:55.525Z,1017.13
2017-05-25T00:43:36.406Z,1017.16
2017-05-25T00:44:17.286Z,1017.16
2017-05-25T00:44:58.182Z,1017.18
2017-05-25T00:45:39.808Z,1017.12
2017-05-25T00:46:20.709Z,1017.15
2017-05-25T00:47:01.608Z,1017.14
2017-05-25T00:47:42.487Z,1017.17
2017-05-25T00:48:23.380Z,1017.19
2017-05-25T00:49:04.270Z,1017.14
2017-05-25T00:49:45.160Z,1017.16
2017-05-25T00:50:26.049Z,1017.19
2017-05-25T00:51:06.944Z,1017.14
2017-05-25T00:51:47.818Z,1017.14
2017-05-25T00:52:28.695Z,1017.15
2017-05-25T00:53:09.586Z,1017.13
2017-05-25T00:53:50.487Z,1017.17
2017-05-25T00:54:32.305Z,1017.15
2017-05-25T00:55:13.184Z,1017.17
2017-05-25T00:55:54.074Z,1017.18
2017-05-25T00:56:34.964Z,1017.23
2017-05-25T00:57:15.838Z,1017.23
2017-05-25T00:57:56.744Z,1017.21
2017-05-25T00:58:37.659Z,1017.23
2017-05-25T00:59:18.538Z,1017.2
2017-05-25T00:59:59.445Z,1017.17
2017-05-25T01:00:40.352Z,1017.21
2017-05-25T01:01:21.250Z,1017.22
2017-05-25T01:02:02.138Z,1017.21
2017-05-25T01:02:43.010Z,1017.21
2017-05-25T01:03:23.905Z,1017.2
2017-05-25T01:04:04.797Z,1017.23
2017-05-25T01:04:45.678Z,1017.22
2017-05-25T01:05:26.562Z,1017.24
2017-05-25T01:06:07.475Z,1017.26
2017-05-25T01:06:48.357Z,1017.26
2017-05-25T01:07:29.240Z,1017.21
2017-05-25T01:08:10.132Z,1017.24
2017-05-25T01:08:51.021Z,1017.23
2017-05-25T01:09:31.934Z,1017.21
2017-05-25T01:10:12.836Z,1017.17
2017-05-25T01:10:53.717Z,1017.18
2017-05-25T01:12:32.097Z,1017.23
2017-05-25T01:13:12.968Z,1017.17
2017-05-25T01:13:53.858Z,1017.17
2017-05-25T01:14:34.743Z,1017.2
2017-05-25T01:15:15.645Z,1017.19
2017-05-25T01:15:56.543Z,1017.19
2017-05-25T01:16:37.440Z,1017.15
2017-05-25T01:17:18.308Z,1017.16
2017-05-25T01:17:59.201Z,1017.16
2017-05-25T01:18:40.095Z,1017.18
2017-05-25T01:19:20.986Z,1017.2
2017-05-25T01:20:01.880Z,1017.17
2017-05-25T01:20:42.772Z,1017.19
2017-05-25T01:21:23.656Z,1017.16
2017-05-25T01:22:04.536Z,1017.21
2017-05-25T01:22:45.407Z,1017.17
2017-05-25T01:23:26.298Z,1017.2
2017-05-25T01:24:07.194Z,1017.18
2017-05-25T01:24:48.068Z,1017.19
2017-05-25T01:25:28.961Z,1017.13
2017-05-25T01:26:09.892Z,1017.17
2017-05-25T01:26:50.779Z,1017.15
2017-05-25T01:27:31.682Z,1017.13
2017-05-25T01:28:12.561Z,1017.15
2017-05-25T01:28:53.446Z,1017.15
2017-05-25T01:29:34.329Z,1017.14
2017-05-25T01:30:15.228Z,1017.16
2017-05-25T01:30:56.103Z,1017.19
2017-05-25T01:31:37.013Z,1017.22
2017-05-25T01:32:17.913Z,1017.22
2017-05-25T01:32:58.789Z,1017.14
2017-05-25T01:33:39.697Z,1017.14
2017-05-25T01:34:20.577Z,1017.13
2017-05-25T01:35:01.465Z,1017.15
2017-05-25T01:35:42.396Z,1017.17
2017-05-25T01:36:23.283Z,1017.18
2017-05-25T01:37:04.179Z,1017.19
2017-05-25T01:37:45.072Z,1017.19
2017-05-25T01:38:25.940Z,1017.15
2017-05-25T01:39:06.819Z,1017.15
2017-05-25T01:39:47.720Z,1017.18
2017-05-25T01:40:28.606Z,1017.21
2017-05-25T01:41:09.496Z,1017.16
2017-05-25T01:41:50.398Z,1017.16
2017-05-25T01:42:31.275Z,1017.11
2017-05-25T01:43:12.172Z,1017.06
2017-05-25T01:43:53.078Z,1017.11
2017-05-25T01:44:33.962Z,1017.09
2017-05-25T01:45:14.868Z,1017.08
2017-05-25T01:45:55.776Z,1017.05
2017-05-25T01:46:36.637Z,1017.09
2017-05-25T01:47:17.521Z,1017.07
2017-05-25T01:47:58.414Z,1017.05
2017-05-25T01:48:39.302Z,1017.06
2017-05-25T01:49:20.177Z,1017.06
2017-05-25T01:50:01.040Z,1017.04
2017-05-25T01:50:41.958Z,1017.08
2017-05-25T01:51:22.836Z,1017.09
2017-05-25T01:52:03.720Z,1017.12
2017-05-25T01:52:44.635Z,1017.08
2017-05-25T01:53:25.527Z,1017.11
2017-05-25T01:54:06.406Z,1017.11
2017-05-25T01:54:47.309Z,1017.07
2017-05-25T01:55:28.205Z,1017.07
2017-05-25T01:56:09.072Z,1017.06
2017-05-25T01:56:49.976Z,1017.06
2017-05-25T01:57:30.878Z,1017.06
2017-05-25T01:58:11.757Z,1017.11
2017-05-25T01:58:52.665Z,1017.11
2017-05-25T01:59:33.541Z,1017.14
2017-05-25T02:00:14.425Z,1017.15
2017-05-25T02:00:55.344Z,1017.12
2017-05-25T02:01:36.286Z,1017.15
2017-05-25T02:02:17.193Z,1017.17
2017-05-25T02:02:58.074Z,1017.16
2017-05-25T02:03:38.972Z,1017.18
2017-05-25T02:04:19.865Z,1017.17
2017-05-25T02:05:00.742Z,1017.16
2017-05-25T02:05:41.651Z,1017.15
2017-05-25T02:06:22.537Z,1017.2
2017-05-25T02:07:03.420Z,1017.19
2017-05-25T02:07:44.320Z,1017.17
2017-05-25T02:08:25.251Z,1017.2
2017-05-25T02:09:06.146Z,1017.2
2017-05-25T02:09:47.035Z,1017.22
2017-05-25T02:10:27.904Z,1017.2
2017-05-25T02:11:08.804Z,1017.21
2017-05-25T02:11:49.710Z,1017.23
2017-05-25T02:12:30.594Z,1017.19
2017-05-25T02:13:11.487Z,1017.21
2017-05-25T02:13:52.395Z,1017.16
2017-05-25T02:14:33.282Z,1017.22
2017-05-25T02:15:14.182Z,1017.23
2017-05-25T02:15:55.066Z,1017.21
2017-05-25T02:16:36.014Z,1017.23
2017-05-25T02:17:16.871Z,1017.19
2017-05-25T02:17:57.757Z,1017.19
2017-05-25T02:18:38.652Z,1017.2
2017-05-25T02:19:19.560Z,1017.23
2017-05-25T02:20:00.430Z,1017.25
2017-05-25T02:20:41.323Z,1017.2
2017-05-25T02:22:50.328Z,1017.18
2017-05-25T02:23:31.220Z,1017.19
2017-05-25T02:24:12.134Z,1017.2
2017-05-25T02:24:53.025Z,1017.18
2017-05-25T02:25:33.918Z,1017.19
2017-05-25T02:26:14.809Z,1017.17
2017-05-25T02:26:55.710Z,1017.21
2017-05-25T02:27:36.599Z,1017.17
2017-05-25T02:28:17.475Z,1017.19
2017-05-25T02:28:58.365Z,1017.18
2017-05-25T02:29:39.288Z,1017.18
2017-05-25T02:30:20.175Z,1017.16
2017-05-25T02:31:01.076Z,1017.13
2017-05-25T02:31:41.973Z,1017.14
2017-05-25T02:32:22.843Z,1017.13
2017-05-25T02:33:03.729Z,1017.15
2017-05-25T02:33:44.651Z,1017.12
2017-05-25T02:34:25.587Z,1017.15
2017-05-25T02:35:06.458Z,1017.12
2017-05-25T02:35:47.341Z,1017.12
2017-05-25T02:36:28.243Z,1017.12
2017-05-25T02:37:09.130Z,1017.13
2017-05-25T02:37:50.004Z,1017.14
2017-05-25T02:38:30.896Z,1017.1
2017-05-25T02:39:11.836Z,1017.11
2017-05-25T02:39:52.740Z,1017.1
2017-05-25T02:40:33.614Z,1017.09
2017-05-25T02:41:14.526Z,1017.09
2017-05-25T02:41:55.408Z,1017.1
2017-05-25T02:42:36.299Z,1017.09
2017-05-25T02:43:17.182Z,1017.06
2017-05-25T02:43:58.055Z,1017.08
2017-05-25T02:44:38.933Z,1017.1
2017-05-25T02:45:19.830Z,1017.06
2017-05-25T02:46:00.721Z,1017.06
2017-05-25T02:46:41.602Z,1017.05
2017-05-25T02:47:22.507Z,1017.07
2017-05-25T02:48:03.394Z,1016.98
2017-05-25T02:48:44.345Z,1017.02
2017-05-25T02:49:25.178Z,1017.05
2017-05-25T02:50:06.073Z,1017.05
2017-05-25T02:50:46.967Z,1017.01
2017-05-25T02:51:27.860Z,1017.04
2017-05-25T02:52:08.748Z,1017.03
2017-05-25T02:52:49.678Z,1017
2017-05-25T02:53:30.563Z,1016.97
2017-05-25T02:54:11.454Z,1016.99
2017-05-25T02:54:52.349Z,1017
2017-05-25T02:55:33.240Z,1017.04
2017-05-25T02:56:14.143Z,1017.01
2017-05-25T02:56:55.028Z,1016.97
2017-05-25T02:57:35.918Z,1017
2017-05-25T02:58:16.848Z,1017.01
2017-05-25T02:58:57.827Z,1016.95
2017-05-25T02:59:38.714Z,1017.03
2017-05-25T03:00:19.606Z,1016.98
2017-05-25T03:01:00.506Z,1017.02
2017-05-25T03:01:41.406Z,1017.02
2017-05-25T03:02:22.304Z,1017.05
2017-05-25T03:03:03.190Z,1017.03
2017-05-25T03:03:44.089Z,1017.06
2017-05-25T03:04:25.005Z,1017.06
2017-05-25T03:05:05.857Z,1017.08
2017-05-25T03:05:46.739Z,1017.09
2017-05-25T03:06:27.636Z,1017.07
2017-05-25T03:07:09.101Z,1017.05
2017-05-25T03:07:49.999Z,1017.09
2017-05-25T03:08:30.884Z,1017.14
2017-05-25T03:09:11.787Z,1017.1
2017-05-25T03:09:52.684Z,1017.1
2017-05-25T03:10:33.598Z,1017.1
2017-05-25T03:11:14.482Z,1017.1
2017-05-25T03:11:55.337Z,1017.1
2017-05-25T03:12:36.258Z,1017.1
2017-05-25T03:13:17.197Z,1017.1
2017-05-25T03:13:58.078Z,1017.11
2017-05-25T03:14:38.956Z,1017.09
2017-05-25T03:15:19.839Z,1017.15
2017-05-25T03:16:00.735Z,1017.16
2017-05-25T03:16:41.626Z,1017.12
2017-05-25T03:17:22.520Z,1017.2
2017-05-25T03:18:03.439Z,1017.16
2017-05-25T03:18:44.295Z,1017.16
2017-05-25T03:19:25.186Z,1017.2
2017-05-25T03:20:06.059Z,1017.19
2017-05-25T03:20:46.940Z,1017.16
2017-05-25T03:21:27.830Z,1017.17
2017-05-25T03:22:08.780Z,1017.15
2017-05-25T03:22:49.656Z,1017.17
2017-05-25T03:23:30.542Z,1017.13
2017-05-25T03:24:11.436Z,1017.19
2017-05-25T03:24:52.333Z,1017.22
2017-05-25T03:25:33.219Z,1017.21
2017-05-25T03:26:14.109Z,1017.19
2017-05-25T03:26:55.002Z,1017.19
2017-05-25T03:27:35.882Z,1017.22
2017-05-25T03:28:16.768Z,1017.22
2017-05-25T03:28:57.670Z,1017.19
2017-05-25T03:29:38.571Z,1017.19
2017-05-25T03:30:19.441Z,1017.2
2017-05-25T03:31:00.321Z,1017.23
2017-05-25T03:31:41.214Z,1017.23
2017-05-25T03:32:22.098Z,1017.2
2017-05-25T03:33:02.978Z,1017.21
2017-05-25T03:33:43.873Z,1017.18
2017-05-25T03:34:24.749Z,1017.19
2017-05-25T03:35:05.635Z,1017.18
2017-05-25T03:35:46.526Z,1017.22
2017-05-25T03:36:27.421Z,1017.21
2017-05-25T03:37:08.310Z,1017.19
2017-05-25T03:37:49.205Z,1017.24
2017-05-25T03:38:30.092Z,1017.24
2017-05-25T03:39:11.032Z,1017.26
2017-05-25T03:39:51.925Z,1017.25
2017-05-25T03:40:32.825Z,1017.24
2017-05-25T03:41:13.885Z,1017.22
2017-05-25T03:41:54.910Z,1017.25
2017-05-25T03:42:35.783Z,1017.23
2017-05-25T03:43:16.663Z,1017.22
2017-05-25T03:43:57.572Z,1017.23
2017-05-25T03:44:38.470Z,1017.25
2017-05-25T03:45:19.320Z,1017.25
2017-05-25T03:46:00.207Z,1017.27
2017-05-25T03:46:41.131Z,1017.27
2017-05-25T03:47:22.037Z,1017.28
2017-05-25T03:48:02.919Z,1017.28
2017-05-25T03:48:43.793Z,1017.32
2017-05-25T03:49:24.673Z,1017.32
2017-05-25T03:50:05.590Z,1017.31
2017-05-25T03:50:46.490Z,1017.29
2017-05-25T03:51:27.471Z,1017.32
2017-05-25T03:52:08.386Z,1017.31
2017-05-25T03:52:49.266Z,1017.31
2017-05-25T03:53:30.163Z,1017.28
2017-05-25T03:54:11.056Z,1017.32
2017-05-25T03:54:51.936Z,1017.25
2017-05-25T03:55:32.812Z,1017.27
2017-05-25T03:56:13.701Z,1017.26
2017-05-25T03:56:54.588Z,1017.23
2017-05-25T03:57:35.490Z,1017.25
2017-05-25T03:58:16.380Z,1017.25
2017-05-25T03:58:57.268Z,1017.23
2017-05-25T03:59:38.151Z,1017.26
2017-05-25T04:00:19.041Z,1017.26
2017-05-25T04:00:59.937Z,1017.25
2017-05-25T04:01:40.829Z,1017.24
2017-05-25T04:02:21.720Z,1017.28
2017-05-25T04:03:02.669Z,1017.27
2017-05-25T04:03:43.552Z,1017.26
2017-05-25T04:04:24.443Z,1017.29
2017-05-25T04:05:05.321Z,1017.27
2017-05-25T04:05:46.225Z,1017.25
2017-05-25T04:06:27.099Z,1017.24
2017-05-25T04:07:07.991Z,1017.23
2017-05-25T04:07:48.858Z,1017.22
2017-05-25T04:08:29.747Z,1017.23
2017-05-25T04:09:10.657Z,1017.21
2017-05-25T04:09:51.530Z,1017.21
2017-05-25T04:10:32.439Z,1017.19
2017-05-25T04:11:13.324Z,1017.17
2017-05-25T04:11:54.200Z,1017.18
2017-05-25T04:12:35.091Z,1017.17
2017-05-25T04:13:16.020Z,1017.14
2017-05-25T04:13:56.885Z,1017.16
2017-05-25T04:14:37.769Z,1017.14
2017-05-25T04:15:18.716Z,1017.14
2017-05-25T04:15:59.589Z,1017.15
2017-05-25T04:16:40.485Z,1017.17
2017-05-25T04:17:21.402Z,1017.17
2017-05-25T04:18:02.294Z,1017.15
2017-05-25T04:18:43.188Z,1017.18
2017-05-25T04:19:24.056Z,1017.2
2017-05-25T04:20:04.944Z,1017.19
2017-05-25T04:20:45.830Z,1017.17
2017-05-25T04:21:26.711Z,1017.22
2017-05-25T04:22:07.590Z,1017.2
2017-05-25T04:22:48.480Z,1017.21
2017-05-25T04:23:29.377Z,1017.25
2017-05-25T04:24:10.248Z,1017.2
2017-05-25T04:24:51.133Z,1017.25
2017-05-25T04:25:32.026Z,1017.27
2017-05-25T04:26:12.920Z,1017.25
2017-05-25T04:26:53.807Z,1017.26
2017-05-25T04:27:34.706Z,1017.29
2017-05-25T04:28:15.647Z,1017.25
2017-05-25T04:28:56.538Z,1017.26
2017-05-25T04:29:37.515Z,1017.29
2017-05-25T04:30:18.396Z,1017.26
2017-05-25T04:30:59.331Z,1017.28
2017-05-25T04:31:40.251Z,1017.27
2017-05-25T04:32:21.162Z,1017.32
2017-05-25T04:33:02.035Z,1017.32
2017-05-25T04:33:42.931Z,1017.31
2017-05-25T04:34:23.823Z,1017.35
2017-05-25T04:35:04.752Z,1017.36
2017-05-25T04:35:45.676Z,1017.4
2017-05-25T04:36:26.506Z,1017.41
2017-05-25T04:37:07.393Z,1017.39
2017-05-25T04:37:48.338Z,1017.44
2017-05-25T04:38:29.295Z,1017.39
2017-05-25T04:39:10.167Z,1017.4
2017-05-25T04:39:51.048Z,1017.4
2017-05-25T04:40:31.942Z,1017.43
2017-05-25T04:41:12.832Z,1017.42
2017-05-25T04:41:53.716Z,1017.43
2017-05-25T04:42:34.620Z,1017.39
2017-05-25T04:43:15.508Z,1017.43
2017-05-25T04:43:56.389Z,1017.4
2017-05-25T04:44:37.287Z,1017.5
2017-05-25T04:45:18.174Z,1017.43
2017-05-25T04:45:59.070Z,1017.44
2017-05-25T04:46:39.959Z,1017.46
2017-05-25T04:47:20.851Z,1017.41
2017-05-25T04:48:01.742Z,1017.4
2017-05-25T04:48:42.639Z,1017.42
2017-05-25T04:49:23.572Z,1017.46
2017-05-25T04:50:56.813Z,1017.48
2017-05-25T04:51:37.693Z,1017.45
2017-05-25T04:52:18.579Z,1017.48
2017-05-25T04:52:59.467Z,1017.47
2017-05-25T04:53:40.353Z,1017.46
2017-05-25T04:54:21.243Z,1017.47
2017-05-25T04:55:02.130Z,1017.51
2017-05-25T04:55:43.022Z,1017.53
2017-05-25T04:56:23.908Z,1017.52
2017-05-25T04:57:04.785Z,1017.48
2017-05-25T04:57:45.675Z,1017.5
2017-05-25T04:58:26.624Z,1017.52
2017-05-25T04:59:07.470Z,1017.5
2017-05-25T04:59:48.370Z,1017.49
2017-05-25T05:00:29.254Z,1017.47
2017-05-25T05:01:10.135Z,1017.47
2017-05-25T05:01:51.047Z,1017.47
2017-05-25T05:02:31.944Z,1017.45
2017-05-25T05:03:12.833Z,1017.48
2017-05-25T05:03:53.783Z,1017.47
2017-05-25T05:04:34.675Z,1017.48
2017-05-25T05:05:15.564Z,1017.43
2017-05-25T05:05:56.500Z,1017.41
2017-05-25T05:06:37.338Z,1017.42
2017-05-25T05:07:18.237Z,1017.43
2017-05-25T05:07:59.127Z,1017.41
2017-05-25T05:08:40.022Z,1017.43
2017-05-25T05:09:20.917Z,1017.42
2017-05-25T05:10:01.805Z,1017.4
2017-05-25T05:10:42.703Z,1017.41
2017-05-25T05:11:23.592Z,1017.43
2017-05-25T05:12:04.502Z,1017.43
2017-05-25T05:12:45.409Z,1017.43
2017-05-25T05:13:26.280Z,1017.46
2017-05-25T05:14:07.155Z,1017.47
2017-05-25T05:14:48.057Z,1017.45
2017-05-25T05:15:28.958Z,1017.47
2017-05-25T05:16:09.828Z,1017.43
2017-05-25T05:16:50.727Z,1017.46
2017-05-25T05:17:31.616Z,1017.45
2017-05-25T05:18:12.506Z,1017.48
2017-05-25T05:18:53.400Z,1017.46
2017-05-25T05:19:34.295Z,1017.44
2017-05-25T05:20:15.178Z,1017.45
2017-05-25T05:20:56.070Z,1017.47
2017-05-25T05:21:36.953Z,1017.46
2017-05-25T05:22:17.832Z,1017.44
2017-05-25T05:22:58.716Z,1017.44
2017-05-25T05:23:39.610Z,1017.41
2017-05-25T05:24:20.486Z,1017.44
2017-05-25T05:25:01.364Z,1017.47
2017-05-25T05:25:42.264Z,1017.46
2017-05-25T05:26:23.155Z,1017.47
2017-05-25T05:27:04.039Z,1017.44
2017-05-25T05:27:44.991Z,1017.5
2017-05-25T05:28:25.884Z,1017.43
2017-05-25T05:29:06.789Z,1017.44
2017-05-25T05:29:47.689Z,1017.46
2017-05-25T05:30:28.609Z,1017.44
2017-05-25T05:31:09.469Z,1017.42
2017-05-25T05:31:50.363Z,1017.45
2017-05-25T05:32:31.243Z,1017.46
2017-05-25T05:33:12.120Z,1017.5
2017-05-25T05:33:53.036Z,1017.45
2017-05-25T05:34:33.930Z,1017.5
2017-05-25T05:35:14.813Z,1017.53
2017-05-25T05:35:55.690Z,1017.5
2017-05-25T05:36:36.577Z,1017.53
2017-05-25T05:37:17.465Z,1017.52
2017-05-25T05:37:58.404Z,1017.56
2017-05-25T05:38:39.261Z,1017.53
2017-05-25T05:39:20.144Z,1017.55
2017-05-25T05:40:01.155Z,1017.53
2017-05-25T05:40:42.037Z,1017.54
2017-05-25T05:41:22.925Z,1017.55
2017-05-25T05:42:03.809Z,1017.54
2017-05-25T05:42:44.703Z,1017.51
2017-05-25T05:43:25.589Z,1017.53
2017-05-25T05:44:06.487Z,1017.55
2017-05-25T05:44:47.377Z,1017.53
2017-05-25T05:45:28.265Z,1017.6
2017-05-25T05:46:09.152Z,1017.55
2017-05-25T05:46:50.269Z,1017.53
2017-05-25T05:47:31.711Z,1017.56
2017-05-25T05:48:12.600Z,1017.5
2017-05-25T05:48:53.489Z,1017.54
2017-05-25T05:49:34.387Z,1017.52
2017-05-25T05:50:15.285Z,1017.55
2017-05-25T05:50:56.176Z,1017.49
2017-05-25T05:51:37.071Z,1017.51
2017-05-25T05:52:17.953Z,1017.5
2017-05-25T05:52:58.842Z,1017.54
2017-05-25T05:53:39.727Z,1017.54
2017-05-25T05:54:20.628Z,1017.54
2017-05-25T05:55:01.530Z,1017.48
2017-05-25T05:55:42.432Z,1017.48
2017-05-25T05:56:23.319Z,1017.55
2017-05-25T05:57:04.210Z,1017.51
2017-05-25T05:57:45.098Z,1017.53
2017-05-25T05:58:25.995Z,1017.53
2017-05-25T05:59:06.887Z,1017.49
2017-05-25T05:59:47.777Z,1017.5
2017-05-25T06:00:28.686Z,1017.5
2017-05-25T06:01:09.538Z,1017.53
2017-05-25T06:01:50.433Z,1017.52
2017-05-25T06:02:31.326Z,1017.46
2017-05-25T06:03:12.221Z,1017.51
2017-05-25T06:03:53.109Z,1017.53
2017-05-25T06:04:34.003Z,1017.5
2017-05-25T06:05:14.891Z,1017.53
2017-05-25T06:05:55.805Z,1017.53
2017-05-25T06:06:36.668Z,1017.54
2017-05-25T06:07:17.555Z,1017.51
2017-05-25T06:07:58.452Z,1017.61
2017-05-25T06:08:39.339Z,1017.6
2017-05-25T06:09:20.223Z,1017.6
2017-05-25T06:10:01.113Z,1017.61
2017-05-25T06:10:42.007Z,1017.65
2017-05-25T06:11:22.897Z,1017.6
2017-05-25T06:12:03.794Z,1017.61
2017-05-25T06:12:44.692Z,1017.64
2017-05-25T06:13:25.581Z,1017.65
2017-05-25T06:14:06.466Z,1017.65
2017-05-25T06:14:47.358Z,1017.68
2017-05-25T06:15:28.257Z,1017.71
2017-05-25T06:16:09.189Z,1017.65
2017-05-25T06:16:50.089Z,1017.72
2017-05-25T06:17:30.996Z,1017.72
2017-05-25T06:18:11.877Z,1017.71
2017-05-25T06:18:52.756Z,1017.72
2017-05-25T06:19:33.651Z,1017.68
2017-05-25T06:20:14.536Z,1017.7
2017-05-25T06:20:55.427Z,1017.67
2017-05-25T06:21:36.311Z,1017.69
2017-05-25T06:22:17.206Z,1017.66
2017-05-25T06:22:58.085Z,1017.68
2017-05-25T06:23:38.986Z,1017.66
2017-05-25T06:24:19.889Z,1017.71
2017-05-25T06:25:00.771Z,1017.66
2017-05-25T06:25:41.667Z,1017.73
2017-05-25T06:26:22.587Z,1017.69
2017-05-25T06:27:03.489Z,1017.72
2017-05-25T06:27:44.380Z,1017.74
2017-05-25T06:28:25.273Z,1017.74
2017-05-25T06:29:06.178Z,1017.73
2017-05-25T06:29:47.075Z,1017.65
2017-05-25T06:30:27.967Z,1017.64
2017-05-25T06:31:08.862Z,1017.63
2017-05-25T06:31:49.756Z,1017.67
2017-05-25T06:32:30.649Z,1017.68
2017-05-25T06:33:11.672Z,1017.59
2017-05-25T06:33:52.570Z,1017.63
2017-05-25T06:34:33.472Z,1017.61
2017-05-25T06:35:14.360Z,1017.65
2017-05-25T06:35:55.271Z,1017.68
2017-05-25T06:36:36.171Z,1017.65
2017-05-25T06:37:17.065Z,1017.68
2017-05-25T06:37:57.978Z,1017.65
2017-05-25T06:38:38.863Z,1017.63
2017-05-25T06:39:19.766Z,1017.64
2017-05-25T06:40:00.671Z,1017.6
2017-05-25T06:40:41.562Z,1017.64
2017-05-25T06:41:22.455Z,1017.65
2017-05-25T06:42:03.350Z,1017.61
2017-05-25T06:42:44.245Z,1017.62
2017-05-25T06:43:25.159Z,1017.6
2017-05-25T06:44:06.064Z,1017.62
2017-05-25T06:44:46.963Z,1017.6
2017-05-25T06:45:27.878Z,1017.53
2017-05-25T06:46:08.781Z,1017.52
2017-05-25T06:46:49.676Z,1017.55
2017-05-25T06:47:30.578Z,1017.51
2017-05-25T06:48:11.467Z,1017.56
2017-05-25T06:48:52.364Z,1017.58
2017-05-25T06:49:33.263Z,1017.57
2017-05-25T06:50:14.153Z,1017.57
2017-05-25T06:50:55.062Z,1017.56
2017-05-25T06:51:35.974Z,1017.57
2017-05-25T06:52:16.859Z,1017.51
2017-05-25T06:52:57.763Z,1017.57
2017-05-25T06:53:38.661Z,1017.61
2017-05-25T06:54:19.563Z,1017.6
2017-05-25T06:55:00.464Z,1017.61
2017-05-25T06:55:41.376Z,1017.61
2017-05-25T06:56:22.309Z,1017.64
2017-05-25T06:57:03.220Z,1017.56
2017-05-25T06:57:44.122Z,1017.58
2017-05-25T06:58:25.017Z,1017.61
2017-05-25T06:59:05.901Z,1017.68
2017-05-25T06:59:46.839Z,1017.65
2017-05-25T07:00:27.764Z,1017.69
2017-05-25T07:01:08.676Z,1017.7
2017-05-25T07:01:49.580Z,1017.67
2017-05-25T07:02:30.494Z,1017.7
2017-05-25T07:03:11.374Z,1017.69
2017-05-25T07:03:52.286Z,1017.64
2017-05-25T07:04:33.182Z,1017.7
2017-05-25T07:05:14.082Z,1017.67
2017-05-25T07:05:54.989Z,1017.61
2017-05-25T07:07:48.611Z,1017.62
2017-05-25T07:08:29.516Z,1017.63
2017-05-25T07:09:10.436Z,1017.62
2017-05-25T07:09:51.458Z,1017.63
2017-05-25T07:10:32.370Z,1017.6
2017-05-25T07:11:13.323Z,1017.62
2017-05-25T07:11:54.213Z,1017.61
2017-05-25T07:12:35.173Z,1017.62
2017-05-25T07:13:16.073Z,1017.64
2017-05-25T07:13:56.991Z,1017.6
2017-05-25T07:14:37.890Z,1017.57
2017-05-25T07:15:18.795Z,1017.63
2017-05-25T07:15:59.694Z,1017.6
2017-05-25T07:16:40.649Z,1017.62
2017-05-25T07:17:21.560Z,1017.62
2017-05-25T07:18:02.462Z,1017.66
2017-05-25T07:18:43.382Z,1017.65
2017-05-25T07:19:24.279Z,1017.66
2017-05-25T07:20:05.180Z,1017.61
2017-05-25T07:20:46.085Z,1017.6
2017-05-25T07:21:26.985Z,1017.65
2017-05-25T07:22:07.901Z,1017.7
2017-05-25T07:22:48.795Z,1017.71
2017-05-25T07:23:29.706Z,1017.69
2017-05-25T07:24:10.604Z,1017.69
2017-05-25T07:24:51.508Z,1017.61
2017-05-25T07:25:32.406Z,1017.63
2017-05-25T07:26:13.312Z,1017.6
2017-05-25T07:26:54.217Z,1017.56
2017-05-25T07:27:35.123Z,1017.49
2017-05-25T07:28:16.024Z,1017.35
2017-05-25T07:28:56.942Z,1017.46
2017-05-25T07:29:37.843Z,1017.39
2017-05-25T07:30:18.744Z,1017.44
2017-05-25T07:30:59.649Z,1017.44
2017-05-25T07:31:40.545Z,1017.46
2017-05-25T07:32:21.597Z,1017.43
2017-05-25T07:33:02.550Z,1017.42
2017-05-25T07:33:43.452Z,1017.46
2017-05-25T07:34:24.363Z,1017.45
2017-05-25T07:35:05.268Z,1017.46
2017-05-25T07:35:46.179Z,1017.44
2017-05-25T07:36:27.078Z,1017.49
2017-05-25T07:37:07.996Z,1017.52
2017-05-25T07:37:48.926Z,1017.41
2017-05-25T07:38:29.834Z,1017.44
2017-05-25T07:39:10.778Z,1017.46
2017-05-25T07:39:51.682Z,1017.49
2017-05-25T07:40:32.600Z,1017.5
2017-05-25T07:41:13.501Z,1017.58
2017-05-25T07:41:54.413Z,1017.55
2017-05-25T07:42:35.319Z,1017.56
2017-05-25T07:44:34.975Z,1017.6
2017-05-25T07:45:15.949Z,1017.66
2017-05-25T07:45:56.836Z,1017.6
2017-05-25T07:46:37.739Z,1017.64
2017-05-25T07:47:18.653Z,1017.62
2017-05-25T07:47:59.566Z,1017.67
2017-05-25T07:48:40.447Z,1017.67
2017-05-25T07:49:21.365Z,1017.68
2017-05-25T07:50:02.288Z,1017.65
2017-05-25T07:50:43.197Z,1017.69
2017-05-25T07:51:24.134Z,1017.76
2017-05-25T07:52:05.021Z,1017.78
2017-05-25T07:52:45.915Z,1017.81
2017-05-25T07:53:26.827Z,1017.81
2017-05-25T07:54:07.780Z,1017.77
2017-05-25T07:54:48.662Z,1017.79
2017-05-25T07:55:29.624Z,1017.79
2017-05-25T07:56:10.533Z,1017.79
2017-05-25T07:56:51.451Z,1017.73
2017-05-25T07:57:32.333Z,1017.74
2017-05-25T07:58:13.244Z,1017.72
2017-05-25T07:58:54.151Z,1017.69
2017-05-25T07:59:35.050Z,1017.72
2017-05-25T08:01:08.411Z,1017.73
2017-05-25T08:01:49.340Z,1017.71
2017-05-25T08:02:30.320Z,1017.66
2017-05-25T08:03:11.230Z,1017.62
2017-05-25T08:03:52.130Z,1017.64
2017-05-25T08:04:33.032Z,1017.65
2017-05-25T08:05:13.971Z,1017.61
2017-05-25T08:07:23.047Z,1017.71
2017-05-25T08:08:03.940Z,1017.63
2017-05-25T08:08:44.842Z,1017.62
2017-05-25T08:09:25.747Z,1017.66
2017-05-25T08:10:06.651Z,1017.63
2017-05-25T08:10:47.535Z,1017.6
2017-05-25T08:11:28.492Z,1017.7
2017-05-25T08:13:27.299Z,1017.71
2017-05-25T08:14:08.183Z,1017.8
2017-05-25T08:14:49.104Z,1017.76
2017-05-25T08:15:30.014Z,1017.85
2017-05-25T08:16:10.921Z,1017.84
2017-05-25T08:16:51.808Z,1017.81
2017-05-25T08:17:32.728Z,1017.8
2017-05-25T08:18:13.638Z,1017.74
2017-05-25T08:18:54.566Z,1017.8
2017-05-25T08:19:35.449Z,1017.86
2017-05-25T08:20:16.367Z,1017.91
2017-05-25T08:20:57.254Z,1017.96
2017-05-25T08:21:38.160Z,1018.01
2017-05-25T08:22:19.048Z,1018.01
2017-05-25T08:22:59.929Z,1018.01
2017-05-25T08:23:40.844Z,1017.91
2017-05-25T08:24:21.746Z,1017.92
2017-05-25T08:25:02.659Z,1017.88
2017-05-25T08:25:43.552Z,1017.88
2017-05-25T08:26:24.495Z,1017.87
2017-05-25T08:27:05.375Z,1017.84
2017-05-25T08:27:46.262Z,1017.85
2017-05-25T08:28:27.168Z,1017.81
2017-05-25T08:29:08.071Z,1017.81